Etusivu
METAR-TAF:

METAR-TAF

Lentoasemat :

Nanaimo, Brittiläinen Kolumbia, Kanada

Leveyspiiri: 49-03N, Pituuspiiri: 123-52W, korkeus merenpinnasta: 28 m

Tämänhetkinen sää

Tämä raportti tehtiin 57 minuuttia sitten, kello 01.00 UTC
Tuuli 3 kn lännestä, vaihdellen lännen ja luoteen välillä
Lämpötila 4°C
Kosteus 100%
Ilmanpaine 1026 hPa
Näkyvyys: 24.1 km
Hajanaisia pilviä 25000 ft:n korkeudessa

METAR: CYCD 230100Z 27003KT 260V320 15SM SCT250 04/04 A3029 RMK CI4 SLP260

Aika: 17:57 (01:57 UTC)

Sääennuste

Tämä raportti tehtiin 2 tuntia ja 13 minuuttia sitten, kello 23.44 UTC
Ennuste voimassa 23. päivästä klo 00 UTC - 23. päivään klo 05 UTC
Tuuli 3 kn eri suunnista
Näkyvyys: 10 km
Muutamia pilviä 2000 ft:n korkeudessa
Hajonneita pilviä 25000 ft:n korkeudessa

TAF: CYCD 222344Z 2300/2305 VRB03KT P6SM FEW020 BKN250 RMK NXT FCST WILL BE ISSUED AT 231545Z

Säähavainnot ja -ennusteet yli 4000 lentoasemalta (METAR- ja TAF-raportit).

Käytössä olevat sääasemat on merkitty karttaan keltaisilla ja punaisilla pisteillä.

Aseta hiiri pisteen päälle nähdäksesi sääaseman nimen.

Klikkaa sitten nähdäksesi säähavainnot ja -ennusteet.

Kartan vaihtaminen: klikkaa mustalla rastilla varustettuja vihreitä pisteitä, niin voit zoomata sisään; viivalla varustettua vihreää pistettä, niin voit zoomata ulos tai vihreitä nuolia, niin pääset viereisille kartoille.


METAR-TAF: